sensor_id;sensor_type;location;lat;lon;timestamp;temperature;humidity
25154;DHT22;47555;51.038;6.280;2023-01-08T00:01:38;10.10;99.90
25154;DHT22;47555;51.038;6.280;2023-01-08T00:04:04;10.10;99.90
25154;DHT22;47555;51.038;6.280;2023-01-08T00:06:29;10.10;99.90
25154;DHT22;47555;51.038;6.280;2023-01-08T00:08:55;10.10;99.90
25154;DHT22;47555;51.038;6.280;2023-01-08T00:11:21;10.10;99.90
25154;DHT22;47555;51.038;6.280;2023-01-08T00:13:46;10.10;99.90
25154;DHT22;47555;51.038;6.280;2023-01-08T00:16:14;10.10;99.90
25154;DHT22;47555;51.038;6.280;2023-01-08T00:18:41;10.10;99.90
25154;DHT22;47555;51.038;6.280;2023-01-08T00:21:07;10.10;99.90
25154;DHT22;47555;51.038;6.280;2023-01-08T00:23:32;10.20;99.90
25154;DHT22;47555;51.038;6.280;2023-01-08T00:26:03;10.20;99.60
25154;DHT22;47555;51.038;6.280;2023-01-08T00:28:29;10.30;99.40
25154;DHT22;47555;51.038;6.280;2023-01-08T00:30:55;10.30;99.50
25154;DHT22;47555;51.038;6.280;2023-01-08T00:33:21;10.30;99.00
25154;DHT22;47555;51.038;6.280;2023-01-08T00:35:46;10.30;99.00
25154;DHT22;47555;51.038;6.280;2023-01-08T00:38:12;10.30;99.00
25154;DHT22;47555;51.038;6.280;2023-01-08T00:40:38;10.30;99.10
25154;DHT22;47555;51.038;6.280;2023-01-08T00:43:05;10.30;99.00
25154;DHT22;47555;51.038;6.280;2023-01-08T00:45:31;10.30;98.90
25154;DHT22;47555;51.038;6.280;2023-01-08T00:47:57;10.40;98.90
25154;DHT22;47555;51.038;6.280;2023-01-08T00:50:22;10.40;98.70
25154;DHT22;47555;51.038;6.280;2023-01-08T00:52:48;10.40;98.60
25154;DHT22;47555;51.038;6.280;2023-01-08T00:55:13;10.40;98.50
25154;DHT22;47555;51.038;6.280;2023-01-08T00:57:39;10.40;98.30
25154;DHT22;47555;51.038;6.280;2023-01-08T01:00:07;10.50;98.30
25154;DHT22;47555;51.038;6.280;2023-01-08T01:02:36;10.50;97.90
25154;DHT22;47555;51.038;6.280;2023-01-08T01:05:03;10.50;97.80
25154;DHT22;47555;51.038;6.280;2023-01-08T01:07:29;10.50;97.90
25154;DHT22;47555;51.038;6.280;2023-01-08T01:09:54;10.50;98.10
25154;DHT22;47555;51.038;6.280;2023-01-08T01:12:20;10.50;98.00
25154;DHT22;47555;51.038;6.280;2023-01-08T01:14:45;10.50;98.20
25154;DHT22;47555;51.038;6.280;2023-01-08T01:17:11;10.50;98.30
25154;DHT22;47555;51.038;6.280;2023-01-08T01:19:37;10.50;97.60
25154;DHT22;47555;51.038;6.280;2023-01-08T01:22:03;10.50;97.80
25154;DHT22;47555;51.038;6.280;2023-01-08T01:24:29;10.50;97.80
25154;DHT22;47555;51.038;6.280;2023-01-08T01:26:55;10.60;97.70
25154;DHT22;47555;51.038;6.280;2023-01-08T01:29:22;10.50;97.80
25154;DHT22;47555;51.038;6.280;2023-01-08T01:31:48;10.60;97.70
25154;DHT22;47555;51.038;6.280;2023-01-08T01:34:13;10.60;97.70
25154;DHT22;47555;51.038;6.280;2023-01-08T01:36:39;10.60;97.50
25154;DHT22;47555;51.038;6.280;2023-01-08T01:39:04;10.60;97.10
25154;DHT22;47555;51.038;6.280;2023-01-08T01:41:34;10.60;96.80
25154;DHT22;47555;51.038;6.280;2023-01-08T01:44:33;10.60;96.10
25154;DHT22;47555;51.038;6.280;2023-01-08T01:47:10;10.60;96.10
25154;DHT22;47555;51.038;6.280;2023-01-08T01:49:38;10.60;96.00
25154;DHT22;47555;51.038;6.280;2023-01-08T01:52:06;10.70;96.00
25154;DHT22;47555;51.038;6.280;2023-01-08T01:54:34;10.60;95.90
25154;DHT22;47555;51.038;6.280;2023-01-08T01:57:00;10.70;95.60
25154;DHT22;47555;51.038;6.280;2023-01-08T01:59:26;10.70;95.20
25154;DHT22;47555;51.038;6.280;2023-01-08T02:01:53;10.70;95.30
25154;DHT22;47555;51.038;6.280;2023-01-08T02:04:19;10.70;95.60
25154;DHT22;47555;51.038;6.280;2023-01-08T02:06:56;10.70;95.10
25154;DHT22;47555;51.038;6.280;2023-01-08T02:09:47;10.70;94.90
25154;DHT22;47555;51.038;6.280;2023-01-08T02:18:04;10.70;95.20
25154;DHT22;47555;51.038;6.280;2023-01-08T02:20:52;10.60;95.10
25154;DHT22;47555;51.038;6.280;2023-01-08T02:23:27;10.60;95.10
25154;DHT22;47555;51.038;6.280;2023-01-08T02:28:39;10.60;95.20
25154;DHT22;47555;51.038;6.280;2023-01-08T02:31:06;10.60;95.10
25154;DHT22;47555;51.038;6.280;2023-01-08T02:33:32;10.60;95.10
25154;DHT22;47555;51.038;6.280;2023-01-08T02:36:27;10.60;95.30
25154;DHT22;47555;51.038;6.280;2023-01-08T02:44:21;10.60;95.00
25154;DHT22;47555;51.038;6.280;2023-01-08T02:46:48;10.60;95.10
25154;DHT22;47555;51.038;6.280;2023-01-08T02:49:16;10.50;95.30
25154;DHT22;47555;51.038;6.280;2023-01-08T02:51:48;10.50;95.30
25154;DHT22;47555;51.038;6.280;2023-01-08T02:54:24;10.60;95.20
25154;DHT22;47555;51.038;6.280;2023-01-08T02:57:06;10.50;95.40
25154;DHT22;47555;51.038;6.280;2023-01-08T02:59:35;10.50;95.30
25154;DHT22;47555;51.038;6.280;2023-01-08T03:02:02;10.50;95.20
25154;DHT22;47555;51.038;6.280;2023-01-08T03:04:31;10.50;95.40
25154;DHT22;47555;51.038;6.280;2023-01-08T03:06:58;10.50;95.40
25154;DHT22;47555;51.038;6.280;2023-01-08T03:09:23;10.50;95.40
25154;DHT22;47555;51.038;6.280;2023-01-08T03:12:15;10.50;95.00
25154;DHT22;47555;51.038;6.280;2023-01-08T03:14:51;10.50;95.00
25154;DHT22;47555;51.038;6.280;2023-01-08T03:17:29;10.50;95.10
25154;DHT22;47555;51.038;6.280;2023-01-08T03:20:00;10.50;95.40
25154;DHT22;47555;51.038;6.280;2023-01-08T03:22:27;10.50;95.20
25154;DHT22;47555;51.038;6.280;2023-01-08T03:24:56;10.50;95.10
25154;DHT22;47555;51.038;6.280;2023-01-08T03:27:27;10.50;95.30
25154;DHT22;47555;51.038;6.280;2023-01-08T03:29:56;10.50;95.40
25154;DHT22;47555;51.038;6.280;2023-01-08T03:32:24;10.50;95.50
25154;DHT22;47555;51.038;6.280;2023-01-08T03:34:52;10.50;95.60
25154;DHT22;47555;51.038;6.280;2023-01-08T03:37:22;10.40;95.30
25154;DHT22;47555;51.038;6.280;2023-01-08T03:42:22;10.50;95.30
25154;DHT22;47555;51.038;6.280;2023-01-08T03:44:49;10.40;95.30
25154;DHT22;47555;51.038;6.280;2023-01-08T03:47:15;10.50;95.10
25154;DHT22;47555;51.038;6.280;2023-01-08T03:49:43;10.50;95.30
25154;DHT22;47555;51.038;6.280;2023-01-08T03:52:29;10.50;94.80
25154;DHT22;47555;51.038;6.280;2023-01-08T03:54:56;10.50;95.00
25154;DHT22;47555;51.038;6.280;2023-01-08T03:57:21;10.50;94.70
25154;DHT22;47555;51.038;6.280;2023-01-08T03:59:47;10.50;94.30
25154;DHT22;47555;51.038;6.280;2023-01-08T04:02:13;10.50;93.60
25154;DHT22;47555;51.038;6.280;2023-01-08T04:04:39;10.50;92.50
25154;DHT22;47555;51.038;6.280;2023-01-08T04:07:06;10.50;92.10
25154;DHT22;47555;51.038;6.280;2023-01-08T04:09:32;10.50;92.10
25154;DHT22;47555;51.038;6.280;2023-01-08T04:11:57;10.50;92.10
25154;DHT22;47555;51.038;6.280;2023-01-08T04:14:23;10.50;91.90
25154;DHT22;47555;51.038;6.280;2023-01-08T04:16:48;10.50;91.40
25154;DHT22;47555;51.038;6.280;2023-01-08T04:19:14;10.50;90.90
25154;DHT22;47555;51.038;6.280;2023-01-08T04:21:40;10.50;90.80
25154;DHT22;47555;51.038;6.280;2023-01-08T04:24:06;10.50;91.00
25154;DHT22;47555;51.038;6.280;2023-01-08T04:26:32;10.50;91.40
25154;DHT22;47555;51.038;6.280;2023-01-08T04:28:57;10.60;91.70
25154;DHT22;47555;51.038;6.280;2023-01-08T04:31:23;10.40;91.70
25154;DHT22;47555;51.038;6.280;2023-01-08T04:33:48;10.50;91.80
25154;DHT22;47555;51.038;6.280;2023-01-08T04:36:14;10.40;92.00
25154;DHT22;47555;51.038;6.280;2023-01-08T04:38:40;10.40;92.00
25154;DHT22;47555;51.038;6.280;2023-01-08T04:41:05;10.40;92.00
25154;DHT22;47555;51.038;6.280;2023-01-08T04:43:32;10.40;92.40
25154;DHT22;47555;51.038;6.280;2023-01-08T04:45:59;10.40;92.20
25154;DHT22;47555;51.038;6.280;2023-01-08T04:48:26;10.40;91.00
25154;DHT22;47555;51.038;6.280;2023-01-08T04:50:52;10.30;90.10
25154;DHT22;47555;51.038;6.280;2023-01-08T04:53:17;10.30;89.60
25154;DHT22;47555;51.038;6.280;2023-01-08T04:55:43;10.30;88.00
25154;DHT22;47555;51.038;6.280;2023-01-08T04:58:08;10.40;87.90
25154;DHT22;47555;51.038;6.280;2023-01-08T05:00:34;10.40;87.60
25154;DHT22;47555;51.038;6.280;2023-01-08T05:03:00;10.40;87.80
25154;DHT22;47555;51.038;6.280;2023-01-08T05:05:26;10.30;88.20
25154;DHT22;47555;51.038;6.280;2023-01-08T05:07:51;10.30;88.80
25154;DHT22;47555;51.038;6.280;2023-01-08T05:10:17;10.20;89.20
25154;DHT22;47555;51.038;6.280;2023-01-08T05:12:42;10.20;89.70
25154;DHT22;47555;51.038;6.280;2023-01-08T05:15:08;10.20;89.80
25154;DHT22;47555;51.038;6.280;2023-01-08T05:17:34;10.10;90.70
25154;DHT22;47555;51.038;6.280;2023-01-08T05:19:59;10.10;91.30
25154;DHT22;47555;51.038;6.280;2023-01-08T05:22:25;10.00;92.20
25154;DHT22;47555;51.038;6.280;2023-01-08T05:24:51;10.00;92.40
25154;DHT22;47555;51.038;6.280;2023-01-08T05:27:16;9.90;92.90
25154;DHT22;47555;51.038;6.280;2023-01-08T05:29:42;9.90;94.10
25154;DHT22;47555;51.038;6.280;2023-01-08T05:32:13;9.80;95.10
25154;DHT22;47555;51.038;6.280;2023-01-08T05:34:39;9.70;95.90
25154;DHT22;47555;51.038;6.280;2023-01-08T05:37:05;9.70;96.40
25154;DHT22;47555;51.038;6.280;2023-01-08T05:39:30;9.70;97.60
25154;DHT22;47555;51.038;6.280;2023-01-08T05:41:56;9.70;97.30
25154;DHT22;47555;51.038;6.280;2023-01-08T05:44:21;9.70;97.40
25154;DHT22;47555;51.038;6.280;2023-01-08T05:46:47;9.70;98.10
25154;DHT22;47555;51.038;6.280;2023-01-08T05:49:13;9.70;98.00
25154;DHT22;47555;51.038;6.280;2023-01-08T05:51:38;9.80;97.80
25154;DHT22;47555;51.038;6.280;2023-01-08T05:54:04;9.70;98.20
25154;DHT22;47555;51.038;6.280;2023-01-08T05:56:29;9.80;99.90
25154;DHT22;47555;51.038;6.280;2023-01-08T05:58:55;9.80;99.90
25154;DHT22;47555;51.038;6.280;2023-01-08T06:01:21;9.70;99.20
25154;DHT22;47555;51.038;6.280;2023-01-08T06:03:46;9.50;99.90
25154;DHT22;47555;51.038;6.280;2023-01-08T06:06:12;9.20;99.90
25154;DHT22;47555;51.038;6.280;2023-01-08T06:08:38;9.00;99.90
25154;DHT22;47555;51.038;6.280;2023-01-08T06:11:06;8.90;99.90
25154;DHT22;47555;51.038;6.280;2023-01-08T06:13:32;8.70;99.90
25154;DHT22;47555;51.038;6.280;2023-01-08T06:15:58;8.60;99.90
25154;DHT22;47555;51.038;6.280;2023-01-08T06:18:25;8.50;99.90
25154;DHT22;47555;51.038;6.280;2023-01-08T06:20:51;8.40;99.90
25154;DHT22;47555;51.038;6.280;2023-01-08T06:23:16;8.30;99.90
25154;DHT22;47555;51.038;6.280;2023-01-08T06:25:42;8.20;99.90
25154;DHT22;47555;51.038;6.280;2023-01-08T06:28:07;8.10;99.90
25154;DHT22;47555;51.038;6.280;2023-01-08T06:30:33;8.00;99.90
25154;DHT22;47555;51.038;6.280;2023-01-08T06:32:59;8.00;99.90
25154;DHT22;47555;51.038;6.280;2023-01-08T06:35:25;7.90;99.90
25154;DHT22;47555;51.038;6.280;2023-01-08T06:37:53;7.90;99.90
25154;DHT22;47555;51.038;6.280;2023-01-08T06:40:19;7.90;99.90
25154;DHT22;47555;51.038;6.280;2023-01-08T06:42:44;7.90;99.90
25154;DHT22;47555;51.038;6.280;2023-01-08T06:45:11;7.90;99.90
25154;DHT22;47555;51.038;6.280;2023-01-08T06:47:36;7.80;99.90
25154;DHT22;47555;51.038;6.280;2023-01-08T06:50:02;7.80;99.90
25154;DHT22;47555;51.038;6.280;2023-01-08T06:52:27;7.70;99.90
25154;DHT22;47555;51.038;6.280;2023-01-08T06:54:53;7.80;99.90
25154;DHT22;47555;51.038;6.280;2023-01-08T06:57:18;7.70;99.90
25154;DHT22;47555;51.038;6.280;2023-01-08T06:59:44;7.70;99.90
25154;DHT22;47555;51.038;6.280;2023-01-08T07:02:13;7.70;99.90
25154;DHT22;47555;51.038;6.280;2023-01-08T07:04:39;7.80;99.90
25154;DHT22;47555;51.038;6.280;2023-01-08T07:07:05;7.80;99.90
25154;DHT22;47555;51.038;6.280;2023-01-08T07:09:33;7.80;99.90
25154;DHT22;47555;51.038;6.280;2023-01-08T07:11:58;7.80;99.90
25154;DHT22;47555;51.038;6.280;2023-01-08T07:14:24;7.80;99.90
25154;DHT22;47555;51.038;6.280;2023-01-08T07:16:49;7.90;99.90
25154;DHT22;47555;51.038;6.280;2023-01-08T07:19:15;7.90;99.90
25154;DHT22;47555;51.038;6.280;2023-01-08T07:21:40;7.90;99.90
25154;DHT22;47555;51.038;6.280;2023-01-08T07:24:06;7.90;99.90
25154;DHT22;47555;51.038;6.280;2023-01-08T07:26:32;7.90;99.90
25154;DHT22;47555;51.038;6.280;2023-01-08T07:28:58;7.90;99.90
25154;DHT22;47555;51.038;6.280;2023-01-08T07:31:23;7.90;99.90
25154;DHT22;47555;51.038;6.280;2023-01-08T07:33:49;7.90;99.90
25154;DHT22;47555;51.038;6.280;2023-01-08T07:36:15;8.00;99.90
25154;DHT22;47555;51.038;6.280;2023-01-08T07:38:41;7.90;99.90
25154;DHT22;47555;51.038;6.280;2023-01-08T07:41:07;8.00;99.90
25154;DHT22;47555;51.038;6.280;2023-01-08T07:43:32;8.00;99.90
25154;DHT22;47555;51.038;6.280;2023-01-08T07:46:01;7.90;99.90
25154;DHT22;47555;51.038;6.280;2023-01-08T07:48:28;7.90;99.90
25154;DHT22;47555;51.038;6.280;2023-01-08T07:50:53;7.90;99.90
25154;DHT22;47555;51.038;6.280;2023-01-08T07:53:19;7.90;99.90
25154;DHT22;47555;51.038;6.280;2023-01-08T07:55:45;7.90;99.90
25154;DHT22;47555;51.038;6.280;2023-01-08T07:58:13;7.90;99.90
25154;DHT22;47555;51.038;6.280;2023-01-08T08:00:39;7.90;99.90
25154;DHT22;47555;51.038;6.280;2023-01-08T08:03:06;7.80;99.90
25154;DHT22;47555;51.038;6.280;2023-01-08T08:05:32;7.80;99.90
25154;DHT22;47555;51.038;6.280;2023-01-08T08:07:58;7.80;99.90
25154;DHT22;47555;51.038;6.280;2023-01-08T08:10:23;7.80;99.90
25154;DHT22;47555;51.038;6.280;2023-01-08T08:12:49;7.80;99.90
25154;DHT22;47555;51.038;6.280;2023-01-08T08:15:14;7.80;99.90
25154;DHT22;47555;51.038;6.280;2023-01-08T08:17:44;7.80;99.90
25154;DHT22;47555;51.038;6.280;2023-01-08T08:20:10;7.80;99.90
25154;DHT22;47555;51.038;6.280;2023-01-08T08:22:35;7.70;99.90
25154;DHT22;47555;51.038;6.280;2023-01-08T08:25:01;7.70;99.90
25154;DHT22;47555;51.038;6.280;2023-01-08T08:27:26;7.70;99.90
25154;DHT22;47555;51.038;6.280;2023-01-08T08:29:52;7.70;99.90
25154;DHT22;47555;51.038;6.280;2023-01-08T08:32:17;7.70;99.90
25154;DHT22;47555;51.038;6.280;2023-01-08T08:34:43;7.70;99.90
25154;DHT22;47555;51.038;6.280;2023-01-08T08:37:08;7.80;99.90
25154;DHT22;47555;51.038;6.280;2023-01-08T08:39:34;7.80;99.90
25154;DHT22;47555;51.038;6.280;2023-01-08T08:42:00;7.90;99.90
25154;DHT22;47555;51.038;6.280;2023-01-08T08:44:26;8.00;99.90
25154;DHT22;47555;51.038;6.280;2023-01-08T08:46:51;8.10;99.90
25154;DHT22;47555;51.038;6.280;2023-01-08T08:49:17;8.30;99.90
25154;DHT22;47555;51.038;6.280;2023-01-08T08:51:42;8.50;99.90
25154;DHT22;47555;51.038;6.280;2023-01-08T08:54:09;8.70;99.70
25154;DHT22;47555;51.038;6.280;2023-01-08T08:56:35;8.90;98.40
25154;DHT22;47555;51.038;6.280;2023-01-08T08:59:00;9.20;97.30
25154;DHT22;47555;51.038;6.280;2023-01-08T09:01:26;9.30;95.40
25154;DHT22;47555;51.038;6.280;2023-01-08T09:03:51;9.40;95.30
25154;DHT22;47555;51.038;6.280;2023-01-08T09:06:17;9.60;95.00
25154;DHT22;47555;51.038;6.280;2023-01-08T09:08:42;9.60;93.90
25154;DHT22;47555;51.038;6.280;2023-01-08T09:11:08;9.40;93.40
25154;DHT22;47555;51.038;6.280;2023-01-08T09:13:36;9.30;94.30
25154;DHT22;47555;51.038;6.280;2023-01-08T09:16:02;9.10;95.30
25154;DHT22;47555;51.038;6.280;2023-01-08T09:18:27;9.20;96.80
25154;DHT22;47555;51.038;6.280;2023-01-08T09:20:53;9.20;96.50
25154;DHT22;47555;51.038;6.280;2023-01-08T09:23:18;9.40;96.00
25154;DHT22;47555;51.038;6.280;2023-01-08T09:25:44;9.60;95.30
25154;DHT22;47555;51.038;6.280;2023-01-08T09:28:11;9.80;93.60
25154;DHT22;47555;51.038;6.280;2023-01-08T09:30:38;9.90;93.60
25154;DHT22;47555;51.038;6.280;2023-01-08T09:33:04;10.00;91.40
25154;DHT22;47555;51.038;6.280;2023-01-08T09:35:31;10.00;92.50
25154;DHT22;47555;51.038;6.280;2023-01-08T09:37:57;9.90;92.40
25154;DHT22;47555;51.038;6.280;2023-01-08T09:40:25;10.00;91.80
25154;DHT22;47555;51.038;6.280;2023-01-08T09:42:59;10.30;91.10
25154;DHT22;47555;51.038;6.280;2023-01-08T09:45:30;10.50;88.30
25154;DHT22;47555;51.038;6.280;2023-01-08T09:47:58;10.40;87.70
25154;DHT22;47555;51.038;6.280;2023-01-08T09:50:26;10.30;88.70
25154;DHT22;47555;51.038;6.280;2023-01-08T09:52:53;10.20;89.80
25154;DHT22;47555;51.038;6.280;2023-01-08T09:55:19;10.20;90.00
25154;DHT22;47555;51.038;6.280;2023-01-08T09:57:45;10.20;90.00
25154;DHT22;47555;51.038;6.280;2023-01-08T10:00:15;10.20;91.10
25154;DHT22;47555;51.038;6.280;2023-01-08T10:02:42;10.20;90.50
25154;DHT22;47555;51.038;6.280;2023-01-08T10:05:16;10.30;90.70
25154;DHT22;47555;51.038;6.280;2023-01-08T10:07:43;10.30;89.40
25154;DHT22;47555;51.038;6.280;2023-01-08T10:10:19;10.30;89.10
25154;DHT22;47555;51.038;6.280;2023-01-08T10:12:45;10.40;90.20
25154;DHT22;47555;51.038;6.280;2023-01-08T10:15:15;10.40;89.00
25154;DHT22;47555;51.038;6.280;2023-01-08T10:17:59;10.40;88.90
25154;DHT22;47555;51.038;6.280;2023-01-08T10:20:27;10.30;88.50
25154;DHT22;47555;51.038;6.280;2023-01-08T10:22:53;10.30;89.30
25154;DHT22;47555;51.038;6.280;2023-01-08T10:25:22;10.30;88.50
25154;DHT22;47555;51.038;6.280;2023-01-08T10:27:51;10.50;90.20
25154;DHT22;47555;51.038;6.280;2023-01-08T10:30:19;10.80;86.10
25154;DHT22;47555;51.038;6.280;2023-01-08T10:32:56;10.90;86.00
25154;DHT22;47555;51.038;6.280;2023-01-08T10:35:30;10.90;85.30
25154;DHT22;47555;51.038;6.280;2023-01-08T10:37:57;10.80;85.80
25154;DHT22;47555;51.038;6.280;2023-01-08T10:40:34;10.80;87.10
25154;DHT22;47555;51.038;6.280;2023-01-08T10:43:17;10.70;85.90
25154;DHT22;47555;51.038;6.280;2023-01-08T10:46:16;10.70;87.70
25154;DHT22;47555;51.038;6.280;2023-01-08T10:48:45;10.70;88.10
25154;DHT22;47555;51.038;6.280;2023-01-08T10:51:15;10.70;89.90
25154;DHT22;47555;51.038;6.280;2023-01-08T10:53:42;10.80;89.40
25154;DHT22;47555;51.038;6.280;2023-01-08T10:56:26;10.80;89.80
25154;DHT22;47555;51.038;6.280;2023-01-08T10:58:52;10.80;87.90
25154;DHT22;47555;51.038;6.280;2023-01-08T11:01:22;10.80;87.60
25154;DHT22;47555;51.038;6.280;2023-01-08T11:03:51;10.80;89.00
25154;DHT22;47555;51.038;6.280;2023-01-08T11:06:26;10.90;87.30
25154;DHT22;47555;51.038;6.280;2023-01-08T11:08:57;10.80;86.80
25154;DHT22;47555;51.038;6.280;2023-01-08T11:11:31;10.80;87.90
25154;DHT22;47555;51.038;6.280;2023-01-08T11:14:00;10.80;88.60
25154;DHT22;47555;51.038;6.280;2023-01-08T11:16:35;10.70;89.00
25154;DHT22;47555;51.038;6.280;2023-01-08T11:19:01;10.70;94.00
25154;DHT22;47555;51.038;6.280;2023-01-08T11:21:30;10.40;96.30
25154;DHT22;47555;51.038;6.280;2023-01-08T11:24:18;10.00;95.40
25154;DHT22;47555;51.038;6.280;2023-01-08T11:26:50;9.50;96.50
25154;DHT22;47555;51.038;6.280;2023-01-08T11:29:26;9.20;98.40
25154;DHT22;47555;51.038;6.280;2023-01-08T11:35:03;8.90;99.90
25154;DHT22;47555;51.038;6.280;2023-01-08T11:37:36;8.80;99.90
25154;DHT22;47555;51.038;6.280;2023-01-08T11:40:14;8.90;99.90
25154;DHT22;47555;51.038;6.280;2023-01-08T11:45:36;9.10;99.90
25154;DHT22;47555;51.038;6.280;2023-01-08T11:48:25;9.40;99.90
25154;DHT22;47555;51.038;6.280;2023-01-08T11:53:54;10.00;99.90
25154;DHT22;47555;51.038;6.280;2023-01-08T12:02:06;10.40;97.10
25154;DHT22;47555;51.038;6.280;2023-01-08T12:07:25;10.60;95.00
25154;DHT22;47555;51.038;6.280;2023-01-08T12:15:20;11.00;92.30
25154;DHT22;47555;51.038;6.280;2023-01-08T12:17:55;11.10;91.60
25154;DHT22;47555;51.038;6.280;2023-01-08T12:20:38;11.10;91.00
25154;DHT22;47555;51.038;6.280;2023-01-08T12:23:17;11.00;90.40
25154;DHT22;47555;51.038;6.280;2023-01-08T12:26:07;10.80;91.10
25154;DHT22;47555;51.038;6.280;2023-01-08T12:28:42;10.70;92.20
25154;DHT22;47555;51.038;6.280;2023-01-08T12:33:59;10.70;92.30
25154;DHT22;47555;51.038;6.280;2023-01-08T12:36:46;10.60;90.20
25154;DHT22;47555;51.038;6.280;2023-01-08T12:39:24;10.50;92.30
25154;DHT22;47555;51.038;6.280;2023-01-08T12:41:53;10.70;91.60
25154;DHT22;47555;51.038;6.280;2023-01-08T12:44:23;10.80;92.40
25154;DHT22;47555;51.038;6.280;2023-01-08T12:46:52;10.90;89.30
25154;DHT22;47555;51.038;6.280;2023-01-08T12:49:34;10.70;89.90
25154;DHT22;47555;51.038;6.280;2023-01-08T12:52:20;10.70;89.50
25154;DHT22;47555;51.038;6.280;2023-01-08T12:55:00;10.60;89.60
25154;DHT22;47555;51.038;6.280;2023-01-08T12:57:28;10.50;90.50
25154;DHT22;47555;51.038;6.280;2023-01-08T12:59:58;10.50;90.60
25154;DHT22;47555;51.038;6.280;2023-01-08T13:02:58;10.60;88.10
25154;DHT22;47555;51.038;6.280;2023-01-08T13:07:56;11.00;80.30
25154;DHT22;47555;51.038;6.280;2023-01-08T13:13:01;11.20;78.10
25154;DHT22;47555;51.038;6.280;2023-01-08T13:15:30;11.30;77.30
25154;DHT22;47555;51.038;6.280;2023-01-08T13:18:00;11.30;77.50
25154;DHT22;47555;51.038;6.280;2023-01-08T13:20:31;11.30;75.30
25154;DHT22;47555;51.038;6.280;2023-01-08T13:23:00;11.30;75.10
25154;DHT22;47555;51.038;6.280;2023-01-08T13:27:57;11.20;76.80
25154;DHT22;47555;51.038;6.280;2023-01-08T13:32:58;11.00;78.30
25154;DHT22;47555;51.038;6.280;2023-01-08T13:35:25;11.10;79.40
25154;DHT22;47555;51.038;6.280;2023-01-08T13:38:11;11.10;80.80
25154;DHT22;47555;51.038;6.280;2023-01-08T13:40:58;11.20;79.90
25154;DHT22;47555;51.038;6.280;2023-01-08T13:43:28;11.10;78.90
25154;DHT22;47555;51.038;6.280;2023-01-08T13:46:05;11.00;79.10
25154;DHT22;47555;51.038;6.280;2023-01-08T13:48:56;10.90;80.10
25154;DHT22;47555;51.038;6.280;2023-01-08T13:51:43;10.80;80.70
25154;DHT22;47555;51.038;6.280;2023-01-08T13:56:39;10.60;82.60
25154;DHT22;47555;51.038;6.280;2023-01-08T13:59:05;10.50;83.10
25154;DHT22;47555;51.038;6.280;2023-01-08T14:01:31;10.50;83.40
25154;DHT22;47555;51.038;6.280;2023-01-08T14:03:56;10.40;84.70
25154;DHT22;47555;51.038;6.280;2023-01-08T14:06:25;10.40;84.70
25154;DHT22;47555;51.038;6.280;2023-01-08T14:08:57;10.40;85.50
25154;DHT22;47555;51.038;6.280;2023-01-08T14:11:40;10.30;85.90
25154;DHT22;47555;51.038;6.280;2023-01-08T14:14:12;10.30;84.30
25154;DHT22;47555;51.038;6.280;2023-01-08T14:16:39;10.30;83.30
25154;DHT22;47555;51.038;6.280;2023-01-08T14:19:05;10.30;83.90
25154;DHT22;47555;51.038;6.280;2023-01-08T14:21:30;10.30;82.80
25154;DHT22;47555;51.038;6.280;2023-01-08T14:23:56;10.30;81.80
25154;DHT22;47555;51.038;6.280;2023-01-08T14:26:35;10.30;82.60
25154;DHT22;47555;51.038;6.280;2023-01-08T14:29:08;10.30;82.70
25154;DHT22;47555;51.038;6.280;2023-01-08T14:31:36;10.20;83.50
25154;DHT22;47555;51.038;6.280;2023-01-08T14:34:03;10.20;82.60
25154;DHT22;47555;51.038;6.280;2023-01-08T14:36:29;10.30;81.60
25154;DHT22;47555;51.038;6.280;2023-01-08T14:38:55;10.30;80.40
25154;DHT22;47555;51.038;6.280;2023-01-08T14:41:34;10.30;80.00
25154;DHT22;47555;51.038;6.280;2023-01-08T14:44:20;10.20;80.10
25154;DHT22;47555;51.038;6.280;2023-01-08T14:46:46;10.10;79.50
25154;DHT22;47555;51.038;6.280;2023-01-08T14:49:21;10.10;79.60
25154;DHT22;47555;51.038;6.280;2023-01-08T14:51:47;10.00;79.90
25154;DHT22;47555;51.038;6.280;2023-01-08T14:54:18;10.00;79.90
25154;DHT22;47555;51.038;6.280;2023-01-08T14:56:49;9.90;80.40
25154;DHT22;47555;51.038;6.280;2023-01-08T14:59:18;9.90;80.00
25154;DHT22;47555;51.038;6.280;2023-01-08T15:01:53;9.80;80.80
25154;DHT22;47555;51.038;6.280;2023-01-08T15:04:21;9.70;81.10
25154;DHT22;47555;51.038;6.280;2023-01-08T15:06:49;9.70;81.20
25154;DHT22;47555;51.038;6.280;2023-01-08T15:09:20;9.70;82.10
25154;DHT22;47555;51.038;6.280;2023-01-08T15:11:53;9.60;82.70
25154;DHT22;47555;51.038;6.280;2023-01-08T15:14:22;9.60;83.40
25154;DHT22;47555;51.038;6.280;2023-01-08T15:16:50;9.60;83.50
25154;DHT22;47555;51.038;6.280;2023-01-08T15:19:22;9.60;83.40
25154;DHT22;47555;51.038;6.280;2023-01-08T15:21:51;9.60;84.00
25154;DHT22;47555;51.038;6.280;2023-01-08T15:24:35;9.50;84.50
25154;DHT22;47555;51.038;6.280;2023-01-08T15:27:03;9.50;84.40
25154;DHT22;47555;51.038;6.280;2023-01-08T15:29:45;9.50;84.70
25154;DHT22;47555;51.038;6.280;2023-01-08T15:34:44;9.50;85.10
25154;DHT22;47555;51.038;6.280;2023-01-08T15:37:11;9.50;85.50
25154;DHT22;47555;51.038;6.280;2023-01-08T15:39:36;9.40;85.80
25154;DHT22;47555;51.038;6.280;2023-01-08T15:42:23;9.40;84.90
25154;DHT22;47555;51.038;6.280;2023-01-08T15:45:12;9.40;84.60
25154;DHT22;47555;51.038;6.280;2023-01-08T15:47:38;9.40;82.70
25154;DHT22;47555;51.038;6.280;2023-01-08T15:50:04;9.40;83.00
25154;DHT22;47555;51.038;6.280;2023-01-08T15:52:30;9.40;83.30
25154;DHT22;47555;51.038;6.280;2023-01-08T15:55:00;9.30;82.50
25154;DHT22;47555;51.038;6.280;2023-01-08T15:57:26;9.30;83.10
25154;DHT22;47555;51.038;6.280;2023-01-08T15:59:54;9.20;82.40
25154;DHT22;47555;51.038;6.280;2023-01-08T16:02:20;9.20;82.00
25154;DHT22;47555;51.038;6.280;2023-01-08T16:04:50;9.20;82.00
25154;DHT22;47555;51.038;6.280;2023-01-08T16:07:16;9.20;82.50
25154;DHT22;47555;51.038;6.280;2023-01-08T16:09:42;9.10;82.70
25154;DHT22;47555;51.038;6.280;2023-01-08T16:12:07;9.10;83.00
25154;DHT22;47555;51.038;6.280;2023-01-08T16:14:33;9.00;83.00
25154;DHT22;47555;51.038;6.280;2023-01-08T16:17:02;9.00;83.50
25154;DHT22;47555;51.038;6.280;2023-01-08T16:19:29;8.90;83.60
25154;DHT22;47555;51.038;6.280;2023-01-08T16:21:55;8.90;84.20
25154;DHT22;47555;51.038;6.280;2023-01-08T16:24:21;8.80;84.40
25154;DHT22;47555;51.038;6.280;2023-01-08T16:26:46;8.80;84.60
25154;DHT22;47555;51.038;6.280;2023-01-08T16:29:12;8.70;85.10
25154;DHT22;47555;51.038;6.280;2023-01-08T16:31:37;8.70;85.00
25154;DHT22;47555;51.038;6.280;2023-01-08T16:34:03;8.70;85.10
25154;DHT22;47555;51.038;6.280;2023-01-08T16:36:29;8.70;85.90
25154;DHT22;47555;51.038;6.280;2023-01-08T16:38:56;8.70;85.60
25154;DHT22;47555;51.038;6.280;2023-01-08T16:41:21;8.60;86.00
25154;DHT22;47555;51.038;6.280;2023-01-08T16:43:47;8.60;86.10
25154;DHT22;47555;51.038;6.280;2023-01-08T16:46:14;8.60;86.30